< < Back
Terminal Aerodrome Forecast


Current Version              Previous Versions:   1  2  3  4  5  6  7  8  9  

Terminal Aerodrome Forecast

345
FTUS44 KBMX 180500
TAFTCL
TAF
KTCL 180520Z 1806/1906 00000KT P6SM BKN250
     FM181400 01004KT P6SM OVC080
     FM190000 00000KT P6SM SCT100 BKN250=

Latest METAR

808
SAUS70 KWBC 181100 RRW
MTRTCL
METAR KTCL 190953Z AUTO 00000KT 8SM FEW038 01/00 A3020 RMK AO2 SLP225
T00110000


USA.gov is the U.S. government's official web portal to all federal, state and local government web resources and services.